createdAt,value
2022-11-29T06:16:29.986Z,1009.09
2022-11-29T06:26:29.995Z,1009.16
2022-11-29T06:36:29.845Z,1009.25
2022-11-29T06:46:30.076Z,1009.30
2022-11-29T06:56:30.087Z,1009.38
2022-11-29T07:06:29.951Z,1009.39
2022-11-29T07:16:30.056Z,1009.43
2022-11-29T07:26:29.967Z,1009.57
2022-11-29T07:36:29.955Z,1009.63
2022-11-29T07:46:30.067Z,1009.66
2022-11-29T07:56:30.054Z,1009.73
2022-11-29T08:06:29.940Z,1009.84
2022-11-29T08:16:30.139Z,1010.03
2022-11-29T08:26:31.851Z,1010.06
2022-11-29T08:36:30.029Z,1010.19
2022-11-29T08:46:30.104Z,1010.17
2022-11-29T08:57:16.668Z,1010.34
2022-11-29T09:06:30.110Z,1010.45
2022-11-29T09:16:30.105Z,1010.60
2022-11-29T09:26:30.160Z,1010.57
2022-11-29T09:36:30.102Z,1010.68
2022-11-29T09:46:29.959Z,1010.74
2022-11-29T09:56:30.076Z,1010.78
2022-11-29T10:06:30.111Z,1010.87
2022-11-29T10:16:30.129Z,1010.87
2022-11-29T10:26:35.003Z,1010.93
2022-11-29T10:36:30.198Z,1010.95
2022-11-29T10:46:29.980Z,1011.04
2022-11-29T10:56:30.110Z,1011.06
2022-11-29T11:06:30.175Z,1010.98
2022-11-29T11:16:34.278Z,1011.02
2022-11-29T11:26:30.220Z,1010.97
2022-11-29T11:36:30.069Z,1011.03
2022-11-29T11:46:30.220Z,1011.14
2022-11-29T11:56:30.089Z,1011.22
2022-11-29T12:06:29.953Z,1011.27
2022-11-29T12:16:30.042Z,1011.26
2022-11-29T12:26:55.929Z,1011.35
2022-11-29T12:36:30.049Z,1011.39
2022-11-29T12:46:30.167Z,1011.42
2022-11-29T12:56:30.030Z,1011.53
2022-11-29T13:06:29.939Z,1011.66
2022-11-29T13:26:29.973Z,1011.76
2022-11-29T13:36:30.081Z,1011.77
2022-11-29T13:46:29.952Z,1011.84
2022-11-29T13:56:30.061Z,1011.94
2022-11-29T14:06:30.044Z,1011.97
2022-11-29T14:16:30.027Z,1011.99
2022-11-29T14:26:30.056Z,1012.04
2022-11-29T14:36:30.017Z,1012.14
2022-11-29T14:46:30.226Z,1012.14
2022-11-29T14:56:29.987Z,1012.20
2022-11-29T15:06:30.107Z,1012.29
2022-11-29T15:16:30.210Z,1012.41
2022-11-29T15:26:30.028Z,1012.26
2022-11-29T15:36:30.022Z,1012.34
2022-11-29T15:46:29.955Z,1012.44
2022-11-29T15:56:30.136Z,1012.43
2022-11-29T16:06:30.195Z,1012.57
2022-11-29T16:16:30.236Z,1012.64
2022-11-29T16:26:30.221Z,1012.60
2022-11-29T16:36:30.185Z,1012.63
2022-11-29T16:46:30.018Z,1012.77
2022-11-29T16:56:30.001Z,1012.80
2022-11-29T17:06:30.188Z,1012.80
2022-11-29T17:16:30.262Z,1012.94
2022-11-29T17:26:30.338Z,1012.99
2022-11-29T17:36:30.111Z,1013.08
2022-11-29T17:46:30.234Z,1013.20
2022-11-29T17:56:30.304Z,1013.26
2022-11-29T18:06:30.162Z,1013.26
2022-11-29T18:16:30.404Z,1013.28
2022-11-29T18:26:30.250Z,1013.22
2022-11-29T18:36:30.339Z,1013.33
2022-11-29T18:46:30.544Z,1013.28
2022-11-29T18:56:30.628Z,1013.26
2022-11-29T19:06:35.612Z,1013.27
2022-11-29T19:16:30.796Z,1013.25
